Time;durP1;ratioP1;P1;durP2;ratioP2;P2;SDS_P1;SDS_P2;PMS_P1;PMS_P2;Temp;Humidity;BMP_temperature;BMP_pressure;BME280_temperature;BME280_humidity;BME280_pressure;Samples;Min_cycle;Max_cycle;Signal;HPM_P1;HPM_P2
2023/01/25 00:01:13;;;;;;;;;;;;;;;;;;10296883;28;20417;-70
2023/01/25 00:06:11;;;;;;;;;;;;;;;;;;10297308;28;19959;-70
2023/01/25 00:11:09;;;;;;;;;;;;;;;;;;10296033;28;19970;-70
2023/01/25 00:16:06;;;;;;;;;;;;;;;;;;10297083;28;19952;-70
2023/01/25 00:21:04;;;;;;;;;;;;;;;;;;10296585;28;20366;-71
2023/01/25 00:26:02;;;;;;;;;;;;;;;;;;10293103;28;19955;-70
2023/01/25 00:31:00;;;;;;;;;;;;;;;;;;10291165;28;20006;-68
2023/01/25 00:35:58;;;;;;;;;;;;;;;;;;10295085;28;19971;-69
2023/01/25 00:40:56;;;;;;;;;;;;;;;;;;10295720;28;19960;-70
2023/01/25 00:45:54;;;;;;;;;;;;;;;;;;10296234;28;19968;-70
2023/01/25 00:50:52;;;;;;;;;;;;;;;;;;10294423;28;19966;-70
2023/01/25 00:55:49;;;;;;;;;;;;;;;;;;10294193;28;20297;-69
2023/01/25 01:00:47;;;;;;;;;;;;;;;;;;10292464;28;19959;-70
2023/01/25 01:05:45;;;;;;;;;;;;;;;;;;10293095;28;19955;-70
2023/01/25 01:10:43;;;;;;;;;;;;;;;;;;10294275;28;19967;-70
2023/01/25 01:15:41;;;;;;;;;;;;;;;;;;10293315;28;20071;-70
2023/01/25 01:20:39;;;;;;;;;;;;;;;;;;10294750;28;19960;-69
2023/01/25 01:25:39;;;;;;;;;;;;;;;;;;10293266;28;19956;-69
2023/01/25 01:30:38;;;;;;;;;;;;;;;;;;10292644;28;20417;-69
2023/01/25 01:35:36;;;;;;;;;;;;;;;;;;10291820;28;19956;-70
2023/01/25 01:40:34;;;;;;;;;;;;;;;;;;10275076;28;19927;-69
2023/01/25 01:45:32;;;;;;;;;;;;;;;;;;10292035;28;19952;-69
2023/01/25 01:50:30;;;;;;;;;;;;;;;;;;10298462;28;19990;-69
2023/01/25 01:55:28;;;;;;;;;;;;;;;;;;10291960;28;19977;-70
2023/01/25 02:00:25;;;;;;;;;;;;;;;;;;10292505;28;19964;-70
2023/01/25 02:05:23;;;;;;;;;;;;;;;;;;10302589;28;19944;-70
2023/01/25 02:10:21;;;;;;;;;;;;;;;;;;10291157;28;20341;-69
2023/01/25 02:15:20;;;;;;;;;;;;;;;;;;10302078;28;19932;-69
2023/01/25 02:20:18;;;;;;;;;;;;;;;;;;10289749;28;19971;-70
2023/01/25 02:25:16;;;;;;;;;;;;;;;;;;10289879;28;19929;-69
2023/01/25 02:30:14;;;;;;;;;;;;;;;;;;10289974;28;19974;-69
2023/01/25 02:35:16;;;;;;;;;;;;;;;;;;10289104;28;19920;-69
2023/01/25 02:40:14;;;;;;;;;;;;;;;;;;10290875;28;19952;-70
2023/01/25 02:45:12;;;;;;;;;;;;;;;;;;10296257;28;19962;-71
2023/01/25 02:50:10;;;;;;;;;;;;;;;;;;10290977;28;20378;-69
2023/01/25 02:55:08;;;;;;;;;;;;;;;;;;10289766;28;20386;-70
2023/01/25 03:00:06;;;;;;;;;;;;;;;;;;10300477;28;19924;-69
2023/01/25 03:05:04;;;;;;;;;;;;;;;;;;10297366;28;20420;-69
2023/01/25 03:10:02;;;;;;;;;;;;;;;;;;10295535;28;19962;-70
2023/01/25 03:15:01;;;;;;;;;;;;;;;;;;10307074;28;19921;-70
2023/01/25 03:19:59;;;;;;;;;;;;;;;;;;10299494;28;19963;-69
2023/01/25 03:24:57;;;;;;;;;;;;;;;;;;10304676;28;19968;-70
2023/01/25 03:29:54;;;;;;;;;;;;;;;;;;10304063;28;19956;-69
2023/01/25 03:34:57;;;;;;;;;;;;;;;;;;10295737;28;19943;-69
2023/01/25 03:39:57;;;;;;;;;;;;;;;;;;10296440;28;19928;-68
2023/01/25 03:44:55;;;;;;;;;;;;;;;;;;10305342;28;19928;-68
2023/01/25 03:49:53;;;;;;;;;;;;;;;;;;10304445;28;19967;-68
2023/01/25 03:54:52;;;;;;;;;;;;;;;;;;10295953;28;19928;-69
2023/01/25 03:59:50;;;;;;;;;;;;;;;;;;10311028;28;19924;-69
2023/01/25 04:04:47;;;;;;;;;;;;;;;;;;10293303;28;20382;-70
2023/01/25 04:09:49;;;;;;;;;;;;;;;;;;10293495;28;19962;-69
2023/01/25 04:14:48;;;;;;;;;;;;;;;;;;10299792;28;19964;-71
2023/01/25 04:19:50;;;;;;;;;;;;;;;;;;10301141;28;19956;-69
2023/01/25 04:24:51;;;;;;;;;;;;;;;;;;10292565;28;20382;-69
2023/01/25 04:29:49;;;;;;;;;;;;;;;;;;10287754;28;19967;-69
2023/01/25 04:34:49;;;;;;;;;;;;;;;;;;10299545;28;19979;-70
2023/01/25 04:39:51;;;;;;;;;;;;;;;;;;10302991;28;19921;-70
2023/01/25 04:44:49;;;;;;;;;;;;;;;;;;10294622;28;19982;-70
2023/01/25 04:49:47;;;;;;;;;;;;;;;;;;10292302;28;19966;-69
2023/01/25 04:54:48;;;;;;;;;;;;;;;;;;10289638;28;19968;-69
2023/01/25 04:59:46;;;;;;;;;;;;;;;;;;10294822;28;20376;-69
2023/01/25 05:04:44;;;;;;;;;;;;;;;;;;10294113;28;19920;-70
2023/01/25 05:09:42;;;;;;;;;;;;;;;;;;10294494;28;19955;-69
2023/01/25 05:14:40;;;;;;;;;;;;;;;;;;10291327;28;19967;-69
2023/01/25 05:19:38;;;;;;;;;;;;;;;;;;10293886;28;20341;-70
2023/01/25 05:24:40;;;;;;;;;;;;;;;;;;10297864;28;19932;-69
2023/01/25 05:29:39;;;;;;;;;;;;;;;;;;10293021;28;19956;-69
2023/01/25 05:34:38;;;;;;;;;;;;;;;;;;10291296;28;19960;-70
2023/01/25 05:39:36;;;;;;;;;;;;;;;;;;10298935;28;20397;-70
2023/01/25 05:44:34;;;;;;;;;;;;;;;;;;10293137;28;19963;-70
2023/01/25 05:49:32;;;;;;;;;;;;;;;;;;10271953;28;19956;-69
2023/01/25 05:54:30;;;;;;;;;;;;;;;;;;10271942;28;19959;-69
2023/01/25 05:59:32;;;;;;;;;;;;;;;;;;10298511;28;19963;-70
2023/01/25 06:04:30;;;;;;;;;;;;;;;;;;10299842;28;19963;-69
2023/01/25 06:09:28;;;;;;;;;;;;;;;;;;10289035;28;19932;-69
2023/01/25 06:14:26;;;;;;;;;;;;;;;;;;10290680;28;19955;-69
2023/01/25 06:19:24;;;;;;;;;;;;;;;;;;10297195;28;20325;-70
2023/01/25 06:24:36;;;;;;;;;;;;;;;;;;10296524;28;19964;-70
2023/01/25 06:29:34;;;;;;;;;;;;;;;;;;10290837;28;19952;-69
2023/01/25 06:34:32;;;;;;;;;;;;;;;;;;10288445;28;20398;-68
2023/01/25 06:39:30;;;;;;;;;;;;;;;;;;10287972;28;19962;-69
2023/01/25 06:44:28;;;;;;;;;;;;;;;;;;10292171;28;20357;-69
2023/01/25 06:49:26;;;;;;;;;;;;;;;;;;10290095;28;19955;-70
2023/01/25 06:54:24;;;;;;;;;;;;;;;;;;10291826;28;19956;-69
2023/01/25 06:59:22;;;;;;;;;;;;;;;;;;10291455;28;19960;-69
2023/01/25 07:04:20;;;;;;;;;;;;;;;;;;10272900;28;19958;-70
2023/01/25 07:09:22;;;;;;;;;;;;;;;;;;10290844;28;19959;-70
2023/01/25 07:14:20;;;;;;;;;;;;;;;;;;10285755;28;19986;-69
2023/01/25 07:19:18;;;;;;;;;;;;;;;;;;10288422;28;19967;-69
2023/01/25 07:24:16;;;;;;;;;;;;;;;;;;10289883;28;19947;-69
2023/01/25 07:29:16;;;;;;;;;;;;;;;;;;10286745;28;20401;-69
2023/01/25 07:34:15;;;;;;;;;;;;;;;;;;10288818;28;19951;-69
2023/01/25 07:39:13;;;;;;;;;;;;;;;;;;10290407;28;19956;-69
2023/01/25 07:44:11;;;;;;;;;;;;;;;;;;10285507;28;19956;-69
2023/01/25 07:49:13;;;;;;;;;;;;;;;;;;10292340;28;19956;-68
2023/01/25 07:54:11;;;;;;;;;;;;;;;;;;10297953;28;19982;-68
2023/01/25 07:59:10;;;;;;;;;;;;;;;;;;10296228;28;19959;-69
2023/01/25 08:04:07;;;;;;;;;;;;;;;;;;10298805;28;19964;-68
2023/01/25 08:09:05;;;;;;;;;;;;;;;;;;10296532;28;19972;-70
2023/01/25 08:14:03;;;;;;;;;;;;;;;;;;10296720;28;20069;-68
2023/01/25 08:19:01;;;;;;;;;;;;;;;;;;10295354;28;19948;-69
2023/01/25 08:24:00;;;;;;;;;;;;;;;;;;10296595;28;19972;-68
2023/01/25 08:28:57;;;;;;;;;;;;;;;;;;10296285;28;20357;-69
2023/01/25 08:33:55;;;;;;;;;;;;;;;;;;10295211;28;20392;-68
2023/01/25 08:38:53;;;;;;;;;;;;;;;;;;10296916;28;19963;-69
2023/01/25 08:43:51;;;;;;;;;;;;;;;;;;10292542;28;19954;-69
2023/01/25 08:48:49;;;;;;;;;;;;;;;;;;10296065;28;19962;-69
2023/01/25 08:53:47;;;;;;;;;;;;;;;;;;10296223;28;20385;-70
2023/01/25 08:58:45;;;;;;;;;;;;;;;;;;10292745;28;19963;-69
2023/01/25 09:03:43;;;;;;;;;;;;;;;;;;10295414;28;19956;-69
2023/01/25 09:08:41;;;;;;;;;;;;;;;;;;10294754;28;19955;-70
2023/01/25 09:13:42;;;;;;;;;;;;;;;;;;10293527;28;19959;-70
2023/01/25 09:18:40;;;;;;;;;;;;;;;;;;10290440;28;20372;-70
2023/01/25 09:23:38;;;;;;;;;;;;;;;;;;10294488;28;20405;-70
2023/01/25 09:28:48;;;;;;;;;;;;;;;;;;10293967;28;19964;-70
2023/01/25 09:33:46;;;;;;;;;;;;;;;;;;10293421;28;19952;-69
2023/01/25 09:38:43;;;;;;;;;;;;;;;;;;10293621;28;19956;-70
2023/01/25 09:43:41;;;;;;;;;;;;;;;;;;10294148;28;19967;-71
2023/01/25 09:48:39;;;;;;;;;;;;;;;;;;10292722;28;19963;-70
2023/01/25 09:53:37;;;;;;;;;;;;;;;;;;10291704;28;19948;-70
2023/01/25 09:58:35;;;;;;;;;;;;;;;;;;10289897;28;19986;-69
2023/01/25 10:03:33;;;;;;;;;;;;;;;;;;10289692;28;19963;-69
2023/01/25 10:08:31;;;;;;;;;;;;;;;;;;10291133;28;20358;-68
2023/01/25 10:13:30;;;;;;;;;;;;;;;;;;10289142;28;19949;-68
2023/01/25 10:18:28;;;;;;;;;;;;;;;;;;10267723;28;19951;-68
2023/01/25 10:23:26;;;;;;;;;;;;;;;;;;10276708;28;19955;-68
2023/01/25 10:28:26;;;;;;;;;;;;;;;;;;10292045;28;19964;-69
2023/01/25 10:33:26;;;;;;;;;;;;;;;;;;10290909;28;20380;-69
2023/01/25 10:38:24;;;;;;;;;;;;;;;;;;10275269;28;19968;-67
2023/01/25 10:43:22;;;;;;;;;;;;;;;;;;10273191;28;19963;-67
2023/01/25 10:48:21;;;;;;;;;;;;;;;;;;10278214;28;20751;-68
2023/01/25 10:53:19;;;;;;;;;;;;;;;;;;10276285;28;19959;-68
2023/01/25 10:58:16;;;;;;;;;;;;;;;;;;10266279;28;20410;-68
2023/01/25 11:03:14;;;;;;;;;;;;;;;;;;10274038;28;19966;-68
2023/01/25 11:08:12;;;;;;;;;;;;;;;;;;10274195;28;19960;-69
2023/01/25 11:13:10;;;;;;;;;;;;;;;;;;10279429;28;20352;-68
2023/01/25 11:18:08;;;;;;;;;;;;;;;;;;10271339;28;19952;-68
2023/01/25 11:23:06;;;;;;;;;;;;;;;;;;10273005;28;19958;-69
2023/01/25 11:28:04;;;;;;;;;;;;;;;;;;10288826;28;19956;-68
2023/01/25 11:33:02;;;;;;;;;;;;;;;;;;10282482;28;20412;-67
2023/01/25 11:38:00;;;;;;;;;;;;;;;;;;10274408;28;20684;-68
2023/01/25 11:42:58;;;;;;;;;;;;;;;;;;10275477;28;19948;-69
2023/01/25 11:47:56;;;;;;;;;;;;;;;;;;10275559;28;19952;-68
2023/01/25 11:52:54;;;;;;;;;;;;;;;;;;10275915;28;20428;-68
2023/01/25 11:57:52;;;;;;;;;;;;;;;;;;10274090;28;19970;-68
2023/01/25 12:02:50;;;;;;;;;;;;;;;;;;10277876;28;19962;-67
2023/01/25 12:07:48;;;;;;;;;;;;;;;;;;10275749;28;19963;-68
2023/01/25 12:12:46;;;;;;;;;;;;;;;;;;10280259;28;19959;-69
2023/01/25 12:17:43;;;;;;;;;;;;;;;;;;10291386;28;19963;-68
2023/01/25 12:22:41;;;;;;;;;;;;;;;;;;10283931;28;19968;-68
2023/01/25 12:27:39;;;;;;;;;;;;;;;;;;10282379;28;21774;-69
2023/01/25 12:32:37;;;;;;;;;;;;;;;;;;10276028;28;20378;-68
2023/01/25 12:37:35;;;;;;;;;;;;;;;;;;10268134;28;20377;-68
2023/01/25 12:42:33;;;;;;;;;;;;;;;;;;10267825;28;19976;-69
2023/01/25 12:47:32;;;;;;;;;;;;;;;;;;10267442;28;20374;-69
2023/01/25 12:52:29;;;;;;;;;;;;;;;;;;10273664;28;19960;-69
2023/01/25 12:57:28;;;;;;;;;;;;;;;;;;10287673;28;20069;-68
2023/01/25 13:02:26;;;;;;;;;;;;;;;;;;10274498;28;19956;-68
2023/01/25 13:07:24;;;;;;;;;;;;;;;;;;10274580;28;19956;-67
2023/01/25 13:12:23;;;;;;;;;;;;;;;;;;10270113;28;20377;-67
2023/01/25 13:17:21;;;;;;;;;;;;;;;;;;10269497;28;20460;-67
2023/01/25 13:22:19;;;;;;;;;;;;;;;;;;10272487;28;20360;-68
2023/01/25 13:27:18;;;;;;;;;;;;;;;;;;10269041;28;20389;-68
2023/01/25 13:32:15;;;;;;;;;;;;;;;;;;10269534;28;19964;-69
2023/01/25 13:37:13;;;;;;;;;;;;;;;;;;10272168;28;19978;-68
2023/01/25 13:42:11;;;;;;;;;;;;;;;;;;10292532;28;19957;-69
2023/01/25 13:47:09;;;;;;;;;;;;;;;;;;10291466;28;19955;-68
2023/01/25 13:52:07;;;;;;;;;;;;;;;;;;10290348;28;19964;-68
2023/01/25 13:57:07;;;;;;;;;;;;;;;;;;10275235;28;20023;-69
2023/01/25 14:02:05;;;;;;;;;;;;;;;;;;10287601;28;19970;-69
2023/01/25 14:07:08;;;;;;;;;;;;;;;;;;10281875;28;19952;-69
2023/01/25 14:12:06;;;;;;;;;;;;;;;;;;10269735;28;19967;-68
2023/01/25 14:17:04;;;;;;;;;;;;;;;;;;10279483;28;19970;-68
2023/01/25 14:22:07;;;;;;;;;;;;;;;;;;10282909;28;19966;-68
2023/01/25 14:27:05;;;;;;;;;;;;;;;;;;10273735;28;20349;-68
2023/01/25 14:32:02;;;;;;;;;;;;;;;;;;10269175;28;19955;-67
2023/01/25 14:37:00;;;;;;;;;;;;;;;;;;10270664;28;19963;-69
2023/01/25 14:41:58;;;;;;;;;;;;;;;;;;10265472;28;19970;-68
2023/01/25 14:46:58;;;;;;;;;;;;;;;;;;10267989;28;19960;-68
2023/01/25 14:51:56;;;;;;;;;;;;;;;;;;10266187;28;19964;-67
2023/01/25 14:56:54;;;;;;;;;;;;;;;;;;10271907;28;19956;-66
2023/01/25 15:01:53;;;;;;;;;;;;;;;;;;10283533;28;19960;-68
2023/01/25 15:06:51;;;;;;;;;;;;;;;;;;10279757;28;19969;-67
2023/01/25 15:11:48;;;;;;;;;;;;;;;;;;10289009;28;20376;-68
2023/01/25 15:16:46;;;;;;;;;;;;;;;;;;10294857;28;19967;-68
2023/01/25 15:21:44;;;;;;;;;;;;;;;;;;10295760;28;19963;-68
2023/01/25 15:26:42;;;;;;;;;;;;;;;;;;10294435;28;19967;-66
2023/01/25 15:31:40;;;;;;;;;;;;;;;;;;10288028;28;19960;-68
2023/01/25 15:36:38;;;;;;;;;;;;;;;;;;10278142;28;19968;-67
2023/01/25 15:41:36;;;;;;;;;;;;;;;;;;10292001;28;19971;-68
2023/01/25 15:46:34;;;;;;;;;;;;;;;;;;10295550;28;20586;-68
2023/01/25 15:51:32;;;;;;;;;;;;;;;;;;10285528;28;20078;-68
2023/01/25 15:56:32;;;;;;;;;;;;;;;;;;10290915;28;19968;-68
2023/01/25 16:01:30;;;;;;;;;;;;;;;;;;10288148;28;19960;-68
2023/01/25 16:06:28;;;;;;;;;;;;;;;;;;10290170;28;19963;-68
2023/01/25 16:11:26;;;;;;;;;;;;;;;;;;10295400;28;20390;-68
2023/01/25 16:16:24;;;;;;;;;;;;;;;;;;10290768;28;19963;-69
2023/01/25 16:21:22;;;;;;;;;;;;;;;;;;10293098;28;19975;-68
2023/01/25 16:26:20;;;;;;;;;;;;;;;;;;10295094;28;20022;-67
2023/01/25 16:31:17;;;;;;;;;;;;;;;;;;10291337;28;19955;-69
2023/01/25 16:36:30;;;;;;;;;;;;;;;;;;10273801;28;19972;-69
2023/01/25 16:41:28;;;;;;;;;;;;;;;;;;10269888;28;20420;-69
2023/01/25 16:46:26;;;;;;;;;;;;;;;;;;10267300;28;19945;-69
2023/01/25 16:51:24;;;;;;;;;;;;;;;;;;10269893;28;20400;-68
2023/01/25 16:56:21;;;;;;;;;;;;;;;;;;10282262;28;19974;-69
2023/01/25 17:01:19;;;;;;;;;;;;;;;;;;10286705;28;19990;-69
2023/01/25 17:06:18;;;;;;;;;;;;;;;;;;10289722;28;19931;-69
2023/01/25 17:11:17;;;;;;;;;;;;;;;;;;10292673;28;19970;-70
2023/01/25 17:16:15;;;;;;;;;;;;;;;;;;10285648;28;19982;-68
2023/01/25 17:21:13;;;;;;;;;;;;;;;;;;10278738;28;20398;-68
2023/01/25 17:26:11;;;;;;;;;;;;;;;;;;10282892;28;19963;-68
2023/01/25 17:31:09;;;;;;;;;;;;;;;;;;10274299;28;19963;-69
2023/01/25 17:36:08;;;;;;;;;;;;;;;;;;10276885;28;19960;-68
2023/01/25 17:41:05;;;;;;;;;;;;;;;;;;10285088;28;19956;-69
2023/01/25 17:46:03;;;;;;;;;;;;;;;;;;10273077;28;20014;-68
2023/01/25 17:51:01;;;;;;;;;;;;;;;;;;10289562;28;19961;-69
2023/01/25 17:55:59;;;;;;;;;;;;;;;;;;10290368;28;19952;-69
2023/01/25 18:00:57;;;;;;;;;;;;;;;;;;10272392;28;19959;-69
2023/01/25 18:06:09;;;;;;;;;;;;;;;;;;10276136;28;19948;-70
2023/01/25 18:11:09;;;;;;;;;;;;;;;;;;10285777;28;20010;-69
2023/01/25 18:16:07;;;;;;;;;;;;;;;;;;10267602;28;19955;-69
2023/01/25 18:21:05;;;;;;;;;;;;;;;;;;10283707;28;19963;-69
2023/01/25 18:26:05;;;;;;;;;;;;;;;;;;10268906;28;19975;-69
2023/01/25 18:31:03;;;;;;;;;;;;;;;;;;10279034;28;19948;-69
2023/01/25 18:36:02;;;;;;;;;;;;;;;;;;10276429;28;19968;-69
2023/01/25 18:41:00;;;;;;;;;;;;;;;;;;10283438;28;19963;-68
2023/01/25 18:45:58;;;;;;;;;;;;;;;;;;10271613;28;19979;-67
2023/01/25 18:50:56;;;;;;;;;;;;;;;;;;10268155;28;19968;-68
2023/01/25 18:55:54;;;;;;;;;;;;;;;;;;10252765;28;19999;-68
2023/01/25 19:00:52;;;;;;;;;;;;;;;;;;10273237;28;19960;-69
2023/01/25 19:05:51;;;;;;;;;;;;;;;;;;10281354;28;19924;-69
2023/01/25 19:10:49;;;;;;;;;;;;;;;;;;10242358;28;19952;-68
2023/01/25 19:15:47;;;;;;;;;;;;;;;;;;10254276;28;19978;-69
2023/01/25 19:20:45;;;;;;;;;;;;;;;;;;10256141;28;20377;-70
2023/01/25 19:25:44;;;;;;;;;;;;;;;;;;10265235;28;19956;-68
2023/01/25 19:30:43;;;;;;;;;;;;;;;;;;10275490;28;19979;-69
2023/01/25 19:35:41;;;;;;;;;;;;;;;;;;10276903;28;20380;-69
2023/01/25 19:40:40;;;;;;;;;;;;;;;;;;10266561;28;19979;-69
2023/01/25 19:45:38;;;;;;;;;;;;;;;;;;10279138;28;19959;-69
2023/01/25 19:50:37;;;;;;;;;;;;;;;;;;10253924;28;19959;-69
2023/01/25 19:55:35;;;;;;;;;;;;;;;;;;10272242;28;19964;-70
2023/01/25 20:00:34;;;;;;;;;;;;;;;;;;10248678;28;20022;-69
2023/01/25 20:05:32;;;;;;;;;;;;;;;;;;10253985;28;19964;-69
2023/01/25 20:10:31;;;;;;;;;;;;;;;;;;10267185;28;19953;-70
2023/01/25 20:15:31;;;;;;;;;;;;;;;;;;10262756;28;20390;-69
2023/01/25 20:20:29;;;;;;;;;;;;;;;;;;10261929;28;19963;-69
2023/01/25 20:25:28;;;;;;;;;;;;;;;;;;10253915;28;19968;-70
2023/01/25 20:30:26;;;;;;;;;;;;;;;;;;10257497;28;20369;-69
2023/01/25 20:39:51;;;;;;;27.42;18.40;;;;;;;;;;10386998;27;20225;-68
2023/01/25 20:44:49;;;;;;;23.17;16.40;;;;;;;;;;10368658;28;20079;-68
2023/01/25 20:49:47;;;;;;;27.27;18.90;;;;;;;;;;10366817;28;20070;-69
2023/01/25 20:54:46;;;;;;;27.00;17.50;;;;;;;;;;10364876;28;20444;-70
2023/01/25 20:59:45;;;;;;;18.63;13.10;;;;;;;;;;10352193;28;20070;-69
2023/01/25 21:04:43;;;;;;;23.65;16.98;;;;;;;;;;10356357;28;20078;-69
2023/01/25 21:09:41;;;;;;;25.00;19.02;;;;;;;;;;10343529;28;20502;-68
2023/01/25 21:14:40;;;;;;;25.17;18.63;;;;;;;;;;10346761;28;20060;-69
2023/01/25 21:19:39;;;;;;;32.72;19.65;;;;;;;;;;10344229;28;20072;-69
2023/01/25 21:24:37;;;;;;;35.22;24.13;;;;;;;;;;10348650;28;20067;-70
2023/01/25 21:29:36;;;;;;;28.60;17.83;;;;;;;;;;10332773;28;20068;-69
2023/01/25 21:34:34;;;;;;;26.50;19.70;;;;;;;;;;10344615;28;20072;-69
2023/01/25 21:39:33;;;;;;;56.60;35.05;;;;;;;;;;10360709;28;20079;-69
2023/01/25 21:55:04;;;;;;;25.38;19.20;;;;;;;;;;10301749;28;20478;-70
2023/01/25 22:00:04;;;;;;;31.30;20.73;;;;;;;;;;10306047;28;20465;-70
2023/01/25 22:05:02;;;;;;;58.75;35.63;;;;;;;;;;10304314;28;20781;-69
2023/01/25 22:10:00;;;;;;;29.30;19.52;;;;;;;;;;10302598;28;20064;-70
2023/01/25 22:15:00;;;;;;;46.30;24.65;;;;;;;;;;10307136;28;20466;-69
2023/01/25 22:19:58;;;;;;;31.50;19.65;;;;;;;;;;10299465;28;20516;-68
2023/01/25 22:24:57;;;;;;;23.70;16.70;;;;;;;;;;10301755;28;20064;-69
2023/01/25 22:29:55;;;;;;;25.33;17.70;;;;;;;;;;10295365;28;20130;-68
2023/01/25 22:34:54;;;;;;;22.55;15.30;;;;;;;;;;10302209;28;20071;-69
2023/01/25 22:39:57;;;;;;;23.05;15.80;;;;;;;;;;10307152;28;20076;-69
2023/01/25 22:44:55;;;;;;;24.55;16.20;;;;;;;;;;10301650;28;20090;-69
2023/01/25 22:49:54;;;;;;;22.33;15.88;;;;;;;;;;10303753;28;20083;-69
2023/01/25 22:54:53;;;;;;;22.70;15.25;;;;;;;;;;10301470;28;20053;-70
2023/01/25 22:59:51;;;;;;;23.58;16.83;;;;;;;;;;10299502;28;20556;-70
2023/01/25 23:04:49;;;;;;;19.15;14.00;;;;;;;;;;10297990;28;20036;-70
2023/01/25 23:09:50;;;;;;;21.80;16.63;;;;;;;;;;10302501;28;20071;-69
2023/01/25 23:14:52;;;;;;;23.27;17.17;;;;;;;;;;10298203;28;20073;-68
2023/01/25 23:19:51;;;;;;;20.85;15.95;;;;;;;;;;10295807;28;20083;-68
2023/01/25 23:24:50;;;;;;;22.50;16.80;;;;;;;;;;10296719;28;20064;-68
2023/01/25 23:29:50;;;;;;;22.88;16.58;;;;;;;;;;10299307;28;20074;-69
2023/01/25 23:34:51;;;;;;;24.00;18.65;;;;;;;;;;10302390;28;20069;-69
2023/01/25 23:39:51;;;;;;;22.75;16.50;;;;;;;;;;10300177;28;20079;-69
2023/01/25 23:44:49;;;;;;;25.58;17.83;;;;;;;;;;10297122;28;20077;-69
2023/01/25 23:49:48;;;;;;;26.95;17.50;;;;;;;;;;10297968;28;20502;-70
2023/01/25 23:54:46;;;;;;;23.98;16.15;;;;;;;;;;10299777;28;20082;-69
2023/01/25 23:59:45;;;;;;;22.55;16.80;;;;;;;;;;10300401;28;20071;-70
